Time;durP1;ratioP1;P1;durP2;ratioP2;P2;SDS_P1;SDS_P2;PMS_P1;PMS_P2;Temp;Humidity;BMP_temperature;BMP_pressure;BME280_temperature;BME280_humidity;BME280_pressure;Samples;Min_cycle;Max_cycle;Signal;HPM_P1;HPM_P2
2023/08/09 00:02:18;;;;;;;2.60;1.77;;;16.20;99.90;;;;;;6188594;23;19997;-91
2023/08/09 00:04:43;;;;;;;2.45;2.00;;;16.20;99.90;;;;;;6216140;23;20005;-91
2023/08/09 00:07:10;;;;;;;2.92;2.63;;;16.20;99.90;;;;;;6215216;23;20020;-90
2023/08/09 00:09:35;;;;;;;3.10;2.67;;;16.20;99.90;;;;;;6215269;23;20001;-90
2023/08/09 00:12:01;;;;;;;2.78;2.45;;;16.20;99.90;;;;;;6213816;23;20062;-90
2023/08/09 00:14:26;;;;;;;2.95;2.42;;;16.10;99.90;;;;;;6215368;23;20009;-90
2023/08/09 00:16:52;;;;;;;2.58;2.35;;;16.20;99.90;;;;;;6214623;23;20031;-90
2023/08/09 00:19:18;;;;;;;3.00;2.70;;;16.10;99.90;;;;;;6215358;23;20004;-91
2023/08/09 00:21:44;;;;;;;4.13;3.72;;;16.10;99.90;;;;;;6218344;23;20004;-91
2023/08/09 00:24:10;;;;;;;3.88;3.47;;;16.10;99.90;;;;;;6216462;23;19996;-91
2023/08/09 00:26:35;;;;;;;3.80;3.40;;;16.10;99.90;;;;;;6214745;23;20028;-91
2023/08/09 00:29:02;;;;;;;3.35;3.05;;;16.00;99.90;;;;;;6214149;23;20008;-91
2023/08/09 00:31:27;;;;;;;2.88;2.65;;;16.00;99.90;;;;;;6214453;23;20073;-91
2023/08/09 00:33:53;;;;;;;3.95;3.05;;;15.90;99.90;;;;;;6214887;23;20426;-89
2023/08/09 00:36:19;;;;;;;5.22;2.63;;;15.90;99.90;;;;;;6213874;23;20007;-90
2023/08/09 00:38:44;;;;;;;3.60;3.30;;;15.80;99.90;;;;;;6215142;23;20001;-90
2023/08/09 00:41:10;;;;;;;2.92;2.63;;;15.80;99.90;;;;;;6213887;23;20067;-90
2023/08/09 00:43:35;;;;;;;3.95;3.65;;;15.70;99.90;;;;;;6220672;23;19997;-94
2023/08/09 00:46:01;;;;;;;4.05;3.50;;;15.60;99.90;;;;;;6221887;23;20001;-90
2023/08/09 00:48:27;;;;;;;4.85;3.33;;;15.60;99.90;;;;;;6214279;23;20001;-89
2023/08/09 00:50:53;;;;;;;3.80;2.83;;;15.50;99.90;;;;;;6214129;23;20009;-90
2023/08/09 00:53:20;;;;;;;3.47;2.60;;;15.50;99.90;;;;;;6213714;23;20019;-89
2023/08/09 00:55:46;;;;;;;4.13;3.08;;;15.40;99.90;;;;;;6214438;23;20004;-90
2023/08/09 00:58:11;;;;;;;3.53;2.80;;;15.40;99.90;;;;;;6214665;23;20031;-90
2023/08/09 01:00:37;;;;;;;3.58;3.28;;;15.30;99.90;;;;;;6188060;23;20004;-90
2023/08/09 01:03:03;;;;;;;4.43;3.30;;;15.30;99.90;;;;;;6214000;23;20108;-90
2023/08/09 01:05:48;;;;;;;4.93;2.83;;;15.30;99.90;;;;;;6214491;23;20039;-90
2023/08/09 01:08:27;;;;;;;3.35;2.85;;;15.30;99.90;;;;;;6214589;23;20028;-90
2023/08/09 01:11:13;;;;;;;4.13;3.22;;;15.20;99.90;;;;;;6215754;23;20043;-91
2023/08/09 01:13:40;;;;;;;3.28;2.97;;;15.20;99.90;;;;;;6215125;23;20000;-90
2023/08/09 01:16:07;;;;;;;3.47;3.17;;;15.20;99.90;;;;;;6214028;23;20075;-90
2023/08/09 01:18:35;;;;;;;3.35;3.05;;;15.30;99.90;;;;;;6214489;23;20011;-90
2023/08/09 01:21:02;;;;;;;3.50;3.20;;;15.30;99.90;;;;;;6214245;23;20330;-90
2023/08/09 01:23:33;;;;;;;3.30;3.00;;;15.30;99.90;;;;;;6214061;23;20005;-91
2023/08/09 01:25:59;;;;;;;4.90;4.20;;;15.40;99.90;;;;;;6188444;23;20505;-89
2023/08/09 01:28:24;;;;;;;3.85;2.83;;;15.40;99.90;;;;;;6214787;23;20011;-89
2023/08/09 01:30:50;;;;;;;4.68;4.28;;;15.40;99.90;;;;;;6216180;23;20001;-90
2023/08/09 01:33:16;;;;;;;3.90;3.60;;;15.50;99.90;;;;;;6188176;23;20012;-90
2023/08/09 01:35:53;;;;;;;4.70;4.07;;;15.50;99.90;;;;;;6215651;23;20011;-90
2023/08/09 01:38:35;;;;;;;5.80;4.85;;;15.60;99.90;;;;;;6220716;23;20027;-92
2023/08/09 01:41:03;;;;;;;4.13;3.72;;;15.70;99.90;;;;;;6234991;23;20028;-91
2023/08/09 01:43:30;;;;;;;7.28;6.55;;;15.70;99.90;;;;;;6207968;23;20000;-91
2023/08/09 01:45:56;;;;;;;7.50;5.40;;;15.70;99.90;;;;;;6229293;23;20001;-90
2023/08/09 01:48:21;;;;;;;7.95;5.45;;;15.70;99.90;;;;;;6223053;23;20035;-90
2023/08/09 01:50:48;;;;;;;7.50;6.75;;;15.80;99.90;;;;;;6226438;23;20032;-91
2023/08/09 01:53:14;;;;;;;7.93;6.95;;;15.80;99.90;;;;;;6229180;23;20053;-91
2023/08/09 01:55:40;;;;;;;8.80;7.28;;;15.80;99.90;;;;;;6231462;23;20465;-90
2023/08/09 01:58:06;;;;;;;7.53;6.68;;;15.80;99.90;;;;;;6217385;23;19996;-91
2023/08/09 02:00:32;;;;;;;8.98;8.15;;;15.80;99.90;;;;;;6217081;23;20016;-90
2023/08/09 02:02:58;;;;;;;10.40;9.40;;;15.80;99.90;;;;;;6224969;23;20024;-90
2023/08/09 02:05:23;;;;;;;10.52;9.43;;;15.90;99.90;;;;;;6240873;23;19991;-89
2023/08/09 02:07:50;;;;;;;10.05;9.10;;;15.90;99.90;;;;;;6222539;23;20068;-90
2023/08/09 02:10:16;;;;;;;10.43;9.45;;;15.90;99.90;;;;;;6242240;22;20027;-91
2023/08/09 02:12:47;;;;;;;10.73;9.63;;;15.90;99.90;;;;;;6233745;22;20005;-90
2023/08/09 02:15:13;;;;;;;10.15;8.95;;;15.90;99.90;;;;;;6219255;23;20066;-90
2023/08/09 02:17:38;;;;;;;11.25;9.85;;;15.90;99.90;;;;;;6217196;23;20422;-90
2023/08/09 02:20:05;;;;;;;12.13;10.32;;;16.00;99.90;;;;;;6216292;23;20013;-91
2023/08/09 02:22:36;;;;;;;12.20;10.38;;;16.00;99.90;;;;;;6216297;23;20001;-90
2023/08/09 02:25:03;;;;;;;13.30;11.18;;;16.00;99.90;;;;;;6216487;23;20004;-90
2023/08/09 02:27:29;;;;;;;10.75;9.70;;;16.00;99.90;;;;;;6216420;23;20020;-91
2023/08/09 02:29:55;;;;;;;9.43;8.57;;;16.00;99.90;;;;;;6215828;23;20438;-90
2023/08/09 02:32:21;;;;;;;12.50;11.15;;;16.00;99.90;;;;;;6215386;23;20001;-89
2023/08/09 02:34:46;;;;;;;13.38;12.07;;;16.10;99.90;;;;;;6215392;23;20000;-90
2023/08/09 02:37:12;;;;;;;13.30;11.75;;;16.10;99.90;;;;;;6214812;23;20001;-90
2023/08/09 02:39:37;;;;;;;13.63;12.25;;;16.10;99.90;;;;;;6215100;23;20027;-90
2023/08/09 02:42:03;;;;;;;17.88;13.05;;;16.10;99.90;;;;;;6215473;23;19996;-90
2023/08/09 02:44:29;;;;;;;17.80;13.18;;;16.10;99.90;;;;;;6215433;23;20055;-90
2023/08/09 02:46:55;;;;;;;13.75;12.20;;;16.10;99.90;;;;;;6215475;23;19996;-90
2023/08/09 02:49:20;;;;;;;12.90;11.57;;;16.10;99.90;;;;;;6188476;23;20076;-90
2023/08/09 02:51:46;;;;;;;13.95;12.55;;;16.10;99.90;;;;;;6214789;23;20009;-90
2023/08/09 02:54:12;;;;;;;19.00;13.88;;;16.10;99.90;;;;;;6214889;23;20013;-90
2023/08/09 02:56:37;;;;;;;17.13;13.77;;;16.10;99.90;;;;;;6215013;23;20326;-89
2023/08/09 02:59:03;;;;;;;17.52;13.30;;;16.10;99.90;;;;;;6215625;23;20009;-89
2023/08/09 03:01:29;;;;;;;14.95;13.00;;;16.10;99.90;;;;;;6189174;23;20047;-90
2023/08/09 03:03:55;;;;;;;14.45;12.95;;;16.10;99.90;;;;;;6215424;23;20080;-89
2023/08/09 03:06:22;;;;;;;22.58;16.05;;;16.10;99.90;;;;;;6214836;23;20001;-90
2023/08/09 03:08:51;;;;;;;15.82;12.52;;;16.10;99.90;;;;;;6189563;23;20059;-91
2023/08/09 03:11:22;;;;;;;17.80;14.18;;;16.10;99.90;;;;;;6216287;23;20012;-91
2023/08/09 03:13:47;;;;;;;19.00;14.02;;;16.10;99.90;;;;;;6215756;23;20012;-91
2023/08/09 03:16:13;;;;;;;16.58;12.15;;;16.10;99.90;;;;;;6215218;23;20005;-90
2023/08/09 03:18:39;;;;;;;17.08;13.43;;;16.10;99.90;;;;;;6215216;23;20008;-91
2023/08/09 03:21:05;;;;;;;18.40;13.65;;;16.10;99.90;;;;;;6215372;23;20092;-91
2023/08/09 03:23:31;;;;;;;18.05;12.50;;;16.10;99.90;;;;;;6215432;23;20005;-90
2023/08/09 03:25:56;;;;;;;17.95;14.38;;;16.10;99.90;;;;;;6215375;23;20001;-90
2023/08/09 03:28:22;;;;;;;15.80;13.27;;;16.10;99.90;;;;;;6215022;23;20079;-91
2023/08/09 03:30:48;;;;;;;19.17;14.43;;;16.10;99.90;;;;;;6216650;23;20004;-92
2023/08/09 03:33:14;;;;;;;17.83;14.02;;;16.10;99.90;;;;;;6215789;23;20012;-89
2023/08/09 03:35:40;;;;;;;19.00;14.38;;;16.10;99.90;;;;;;6215067;23;20012;-90
2023/08/09 03:38:05;;;;;;;19.70;15.18;;;16.10;99.90;;;;;;6215211;23;20008;-91
2023/08/09 03:40:31;;;;;;;16.65;14.05;;;16.10;99.90;;;;;;6216200;23;20009;-91
2023/08/09 03:42:57;;;;;;;16.85;14.38;;;16.10;99.90;;;;;;6216378;23;20062;-90
2023/08/09 03:45:23;;;;;;;19.45;15.70;;;16.10;99.90;;;;;;6190665;23;20007;-91
2023/08/09 03:47:48;;;;;;;23.80;16.00;;;16.10;99.90;;;;;;6217210;23;20071;-90
2023/08/09 03:50:14;;;;;;;21.92;15.70;;;16.10;99.90;;;;;;6217200;23;20001;-89
2023/08/09 03:52:40;;;;;;;17.48;15.40;;;16.10;99.90;;;;;;6225778;23;20000;-90
2023/08/09 03:55:06;;;;;;;19.58;15.23;;;16.10;99.90;;;;;;6230903;23;20469;-91
2023/08/09 03:57:32;;;;;;;20.90;12.88;;;16.10;99.90;;;;;;6189489;23;20001;-90
2023/08/09 03:59:58;;;;;;;21.85;14.90;;;16.00;99.90;;;;;;6191002;23;20004;-91
2023/08/09 04:02:23;;;;;;;22.25;15.65;;;16.00;99.90;;;;;;6216110;23;20047;-89
2023/08/09 04:04:49;;;;;;;17.25;13.10;;;16.00;99.90;;;;;;6214471;23;20084;-90
2023/08/09 04:07:14;;;;;;;17.67;15.57;;;16.00;99.90;;;;;;6214471;23;20055;-89
2023/08/09 04:09:40;;;;;;;26.27;15.70;;;16.10;99.90;;;;;;6214822;23;20004;-90
2023/08/09 04:12:06;;;;;;;21.88;14.00;;;16.10;99.90;;;;;;6216847;23;20398;-91
2023/08/09 04:14:32;;;;;;;22.00;14.63;;;16.10;99.90;;;;;;6200252;23;20031;-90
2023/08/09 04:16:57;;;;;;;21.73;16.20;;;16.00;99.90;;;;;;6239652;23;19997;-91
2023/08/09 04:19:25;;;;;;;21.73;15.02;;;16.10;99.90;;;;;;6220424;23;20032;-92
2023/08/09 04:21:51;;;;;;;26.45;17.23;;;16.10;99.90;;;;;;6220093;23;20010;-91
2023/08/09 04:24:17;;;;;;;22.58;15.25;;;16.10;99.90;;;;;;6215080;23;20454;-90
2023/08/09 04:26:43;;;;;;;22.30;14.75;;;16.10;99.90;;;;;;6214985;23;20058;-90
2023/08/09 04:29:08;;;;;;;18.83;13.70;;;16.10;99.90;;;;;;6216790;23;20005;-90
2023/08/09 04:31:34;;;;;;;21.67;14.55;;;16.10;99.90;;;;;;6215608;23;20031;-90
2023/08/09 04:34:00;;;;;;;24.92;17.10;;;16.10;99.90;;;;;;6215882;23;20449;-91
2023/08/09 04:36:26;;;;;;;17.73;13.95;;;16.10;99.90;;;;;;6192059;23;20036;-92
2023/08/09 04:38:52;;;;;;;18.30;12.68;;;16.10;99.90;;;;;;6219875;23;20016;-91
2023/08/09 04:41:18;;;;;;;24.30;15.75;;;16.10;99.90;;;;;;6239673;23;20044;-89
2023/08/09 04:43:44;;;;;;;23.40;17.20;;;16.20;99.90;;;;;;6222453;23;20059;-91
2023/08/09 04:46:10;;;;;;;25.23;16.88;;;16.10;99.90;;;;;;6235434;22;19981;-91
2023/08/09 04:48:37;;;;;;;23.75;16.27;;;16.10;99.90;;;;;;6235759;22;20016;-90
2023/08/09 04:51:03;;;;;;;27.17;18.52;;;16.20;99.90;;;;;;6219909;23;20425;-91
2023/08/09 04:53:29;;;;;;;26.23;17.45;;;16.20;99.90;;;;;;6219930;23;20090;-91
2023/08/09 04:55:55;;;;;;;38.78;22.33;;;16.20;99.90;;;;;;6216530;23;20334;-90
2023/08/09 04:58:21;;;;;;;29.10;19.77;;;16.20;99.90;;;;;;6216162;23;20005;-90
2023/08/09 05:00:46;;;;;;;33.42;20.63;;;16.10;99.90;;;;;;6215477;23;20326;-91
2023/08/09 05:03:12;;;;;;;27.45;19.52;;;16.20;99.90;;;;;;6215004;23;19996;-91
2023/08/09 05:05:37;;;;;;;34.03;21.35;;;16.20;99.90;;;;;;6216261;23;20055;-91
2023/08/09 05:08:03;;;;;;;32.40;20.42;;;16.20;99.90;;;;;;6215031;23;20021;-91
2023/08/09 05:10:29;;;;;;;32.58;23.23;;;16.20;99.90;;;;;;6214777;23;20051;-90
2023/08/09 05:12:54;;;;;;;33.35;21.10;;;16.30;99.90;;;;;;6215098;23;20000;-90
2023/08/09 05:15:20;;;;;;;38.10;23.33;;;16.30;99.90;;;;;;6216928;23;20492;-89
2023/08/09 05:17:46;;;;;;;41.97;25.85;;;16.30;99.90;;;;;;6219621;23;20664;-77
2023/08/09 05:20:12;;;;;;;45.53;24.05;;;16.30;99.90;;;;;;6186969;23;20005;-75
2023/08/09 05:22:38;;;;;;;28.20;21.83;;;16.30;99.90;;;;;;6213920;23;20001;-74
2023/08/09 05:25:04;;;;;;;37.47;23.52;;;16.30;99.90;;;;;;6186968;23;20331;-74
2023/08/09 05:27:29;;;;;;;43.28;24.27;;;16.30;99.90;;;;;;6213860;23;20001;-74
2023/08/09 05:29:55;;;;;;;36.92;25.27;;;16.40;99.90;;;;;;6213287;23;20008;-74
2023/08/09 05:32:21;;;;;;;35.13;22.98;;;16.40;99.90;;;;;;6213526;23;20032;-74
2023/08/09 05:34:47;;;;;;;34.65;21.92;;;16.40;99.90;;;;;;6213939;23;20005;-74
2023/08/09 05:37:13;;;;;;;31.65;20.20;;;16.40;99.90;;;;;;6213588;23;20055;-74
2023/08/09 05:39:39;;;;;;;33.17;19.85;;;16.40;99.90;;;;;;6213790;23;20046;-75
2023/08/09 05:42:04;;;;;;;31.52;21.30;;;16.50;99.90;;;;;;6213459;23;20083;-74
2023/08/09 05:44:30;;;;;;;34.35;20.73;;;16.50;99.90;;;;;;6212463;23;19997;-75
2023/08/09 05:46:56;;;;;;;30.42;18.35;;;16.50;99.90;;;;;;6212139;23;20414;-74
2023/08/09 05:49:21;;;;;;;27.45;18.13;;;16.60;99.90;;;;;;6212026;23;20334;-75
2023/08/09 05:51:47;;;;;;;26.58;17.88;;;16.60;99.90;;;;;;6212398;23;20032;-75
2023/08/09 05:54:13;;;;;;;22.60;16.88;;;16.60;99.90;;;;;;6198037;23;20044;-75
2023/08/09 05:56:39;;;;;;;28.80;18.00;;;16.70;99.90;;;;;;6212016;23;20028;-74
2023/08/09 05:59:05;;;;;;;33.28;18.95;;;16.70;99.90;;;;;;6211235;23;20731;-75
2023/08/09 06:01:31;;;;;;;28.85;18.00;;;16.70;99.90;;;;;;6211731;23;20000;-75
2023/08/09 06:03:57;;;;;;;29.88;17.58;;;16.80;99.90;;;;;;6211877;23;20070;-75
2023/08/09 06:06:23;;;;;;;23.30;15.43;;;16.90;99.90;;;;;;6213122;23;19997;-75
2023/08/09 06:08:49;;;;;;;35.13;18.83;;;16.90;99.90;;;;;;6213717;23;20007;-75
2023/08/09 06:11:15;;;;;;;25.88;16.38;;;17.00;99.90;;;;;;6213333;23;20009;-74
2023/08/09 06:13:41;;;;;;;24.77;17.33;;;17.00;99.90;;;;;;6212938;23;20422;-74
2023/08/09 06:16:07;;;;;;;26.90;15.07;;;17.10;99.90;;;;;;6213244;23;20067;-74
2023/08/09 06:18:32;;;;;;;20.10;15.15;;;17.10;99.90;;;;;;6213696;23;20000;-75
2023/08/09 06:20:58;;;;;;;23.45;15.23;;;17.00;99.90;;;;;;6213381;23;20362;-74
2023/08/09 06:23:24;;;;;;;24.23;15.90;;;17.10;99.90;;;;;;6212892;23;19997;-75
2023/08/09 06:25:50;;;;;;;27.33;16.08;;;17.00;99.90;;;;;;6212898;23;20034;-74
2023/08/09 06:28:18;;;;;;;30.85;18.10;;;17.00;99.90;;;;;;6212333;23;20008;-75
2023/08/09 06:30:44;;;;;;;37.42;18.05;;;17.00;99.90;;;;;;6213513;23;20016;-74
2023/08/09 06:33:10;;;;;;;23.17;16.73;;;17.10;99.90;;;;;;6213052;23;20008;-74
2023/08/09 06:35:35;;;;;;;23.10;15.00;;;17.00;99.90;;;;;;6213192;23;20012;-75
2023/08/09 06:38:01;;;;;;;16.85;13.57;;;17.10;99.90;;;;;;6213273;23;20054;-74
2023/08/09 06:40:26;;;;;;;22.67;16.73;;;17.10;99.90;;;;;;6213044;23;20004;-74
2023/08/09 06:42:52;;;;;;;18.98;14.60;;;17.20;99.90;;;;;;6212628;23;20100;-75
2023/08/09 06:45:18;;;;;;;21.05;15.27;;;17.20;99.90;;;;;;6211193;23;20008;-74
2023/08/09 06:47:43;;;;;;;20.90;13.60;;;17.20;99.90;;;;;;6213189;23;20036;-74
2023/08/09 06:50:09;;;;;;;18.70;13.50;;;17.30;99.90;;;;;;6212885;23;20009;-74
2023/08/09 06:52:36;;;;;;;17.45;14.48;;;17.30;99.90;;;;;;6212899;23;20450;-74
2023/08/09 06:55:05;;;;;;;16.92;13.20;;;17.30;99.90;;;;;;6212581;23;20019;-74
2023/08/09 06:57:31;;;;;;;22.48;14.98;;;17.30;99.90;;;;;;6212381;23;20007;-75
2023/08/09 06:59:57;;;;;;;19.10;15.32;;;17.40;99.90;;;;;;6212957;23;20008;-74
2023/08/09 07:02:23;;;;;;;21.52;16.83;;;17.40;99.90;;;;;;6211566;23;20418;-74
2023/08/09 07:04:53;;;;;;;23.05;16.08;;;17.50;99.90;;;;;;6212168;23;20013;-74
2023/08/09 07:07:19;;;;;;;26.33;17.35;;;17.60;99.90;;;;;;6212293;23;20001;-74
2023/08/09 07:09:45;;;;;;;22.10;16.45;;;17.60;99.90;;;;;;6209683;23;20465;-74
2023/08/09 07:12:11;;;;;;;21.48;15.32;;;17.70;99.90;;;;;;6210769;23;20004;-75
2023/08/09 07:14:36;;;;;;;19.92;16.20;;;17.70;99.90;;;;;;6211066;23;20011;-74
2023/08/09 07:17:02;;;;;;;25.60;17.88;;;17.80;99.90;;;;;;6212097;23;20043;-75
2023/08/09 07:19:28;;;;;;;25.05;18.35;;;17.80;99.90;;;;;;6210190;23;20425;-74
2023/08/09 07:21:54;;;;;;;20.63;16.58;;;17.80;99.90;;;;;;6209618;23;20008;-74
2023/08/09 07:24:19;;;;;;;21.00;17.20;;;17.80;99.90;;;;;;6212111;23;20008;-74
2023/08/09 07:26:45;;;;;;;20.42;14.98;;;17.90;99.90;;;;;;6211342;23;20010;-74
2023/08/09 07:29:10;;;;;;;19.70;14.98;;;17.90;99.90;;;;;;6211620;23;19997;-74
2023/08/09 07:31:36;;;;;;;17.45;13.13;;;18.00;99.90;;;;;;6210774;23;20201;-74
2023/08/09 07:34:02;;;;;;;13.85;12.32;;;18.10;99.90;;;;;;6185250;23;20005;-74
2023/08/09 07:36:28;;;;;;;17.30;13.38;;;18.10;99.90;;;;;;6212171;23;20008;-74
2023/08/09 07:38:53;;;;;;;15.75;13.93;;;18.20;99.90;;;;;;6211482;23;20087;-74
2023/08/09 07:41:19;;;;;;;17.27;15.43;;;18.30;99.90;;;;;;6209188;23;20011;-74
2023/08/09 07:43:45;;;;;;;15.23;13.43;;;18.30;99.90;;;;;;6209427;23;20007;-74
2023/08/09 07:46:11;;;;;;;15.23;12.82;;;18.40;99.90;;;;;;6210636;23;19997;-75
2023/08/09 07:48:37;;;;;;;15.43;12.40;;;18.40;99.90;;;;;;6210392;23;20009;-74
2023/08/09 07:51:02;;;;;;;14.77;13.27;;;18.50;99.90;;;;;;6209870;23;20081;-74
2023/08/09 07:53:28;;;;;;;15.82;13.93;;;18.50;99.90;;;;;;6186549;23;20093;-74
2023/08/09 07:55:54;;;;;;;18.65;15.70;;;18.60;99.90;;;;;;6210631;23;20027;-74
2023/08/09 07:58:20;;;;;;;15.95;13.07;;;18.70;99.90;;;;;;6210879;23;20427;-73
2023/08/09 08:00:46;;;;;;;14.82;13.32;;;18.70;99.90;;;;;;6211820;23;20051;-74
2023/08/09 08:03:11;;;;;;;12.65;10.85;;;18.80;99.90;;;;;;6209855;23;19997;-74
2023/08/09 08:05:37;;;;;;;13.95;12.45;;;18.80;99.90;;;;;;6211944;23;20009;-74
2023/08/09 08:08:03;;;;;;;11.80;9.98;;;18.90;99.90;;;;;;6211361;23;20031;-74
2023/08/09 08:10:29;;;;;;;10.93;9.93;;;18.90;99.90;;;;;;6211362;23;20001;-74
2023/08/09 08:12:55;;;;;;;12.70;11.38;;;18.90;99.90;;;;;;6212171;23;20009;-74
2023/08/09 08:15:20;;;;;;;14.05;12.63;;;19.00;99.90;;;;;;6211274;23;20064;-74
2023/08/09 08:17:48;;;;;;;11.57;10.48;;;19.10;99.90;;;;;;6212143;23;20354;-75
2023/08/09 08:20:17;;;;;;;12.35;11.05;;;19.20;99.90;;;;;;6211813;23;20039;-74
2023/08/09 08:22:47;;;;;;;12.70;11.43;;;19.30;99.90;;;;;;6212007;23;20286;-74
2023/08/09 08:25:14;;;;;;;13.82;11.65;;;19.40;99.90;;;;;;6210974;23;20004;-74
2023/08/09 08:27:45;;;;;;;14.32;12.40;;;19.40;99.90;;;;;;6210458;23;20063;-75
2023/08/09 08:30:13;;;;;;;11.88;10.68;;;19.50;99.90;;;;;;6211321;23;20500;-75
2023/08/09 08:32:38;;;;;;;11.63;10.13;;;19.70;99.90;;;;;;6211614;23;20007;-75
2023/08/09 08:35:10;;;;;;;12.07;8.50;;;19.80;99.90;;;;;;6211408;23;20008;-75
2023/08/09 08:37:36;;;;;;;11.95;8.60;;;20.00;99.90;;;;;;6209770;23;20012;-74
2023/08/09 08:40:07;;;;;;;15.20;10.63;;;20.10;99.90;;;;;;6210647;23;20005;-75
2023/08/09 08:42:32;;;;;;;10.93;9.88;;;20.10;99.90;;;;;;6210095;23;20028;-75
2023/08/09 08:44:58;;;;;;;11.35;10.10;;;20.20;99.90;;;;;;6211839;23;20003;-74
2023/08/09 08:47:26;;;;;;;10.40;9.35;;;20.30;99.90;;;;;;6211644;23;20480;-75
2023/08/09 08:49:55;;;;;;;10.40;9.40;;;20.40;99.90;;;;;;6211296;23;20004;-74
2023/08/09 08:52:25;;;;;;;10.85;9.70;;;20.40;99.90;;;;;;6211377;23;20003;-74
2023/08/09 08:54:51;;;;;;;10.45;8.52;;;20.50;99.90;;;;;;6211464;23;20090;-75
2023/08/09 08:57:17;;;;;;;8.18;7.18;;;20.60;99.90;;;;;;6211081;23;20422;-75
2023/08/09 08:59:42;;;;;;;8.43;7.57;;;20.60;99.90;;;;;;6211651;23;20007;-75
2023/08/09 09:02:08;;;;;;;8.68;7.00;;;20.60;99.90;;;;;;6211333;23;20323;-75
2023/08/09 09:04:36;;;;;;;8.23;7.38;;;20.70;99.90;;;;;;6185133;23;20008;-75
2023/08/09 09:07:01;;;;;;;9.63;7.25;;;20.70;99.90;;;;;;6184825;23;20004;-74
2023/08/09 09:09:27;;;;;;;8.43;7.53;;;20.80;99.90;;;;;;6210698;23;20453;-75
2023/08/09 09:11:53;;;;;;;7.32;6.60;;;20.80;99.90;;;;;;6211718;23;20001;-75
2023/08/09 09:14:18;;;;;;;6.85;6.15;;;20.90;99.90;;;;;;6210756;23;20392;-75
2023/08/09 09:16:45;;;;;;;9.73;6.72;;;20.90;99.90;;;;;;6211965;23;20005;-75
2023/08/09 09:19:11;;;;;;;7.45;6.78;;;21.00;99.90;;;;;;6211361;23;20004;-74
2023/08/09 09:21:37;;;;;;;7.40;6.80;;;21.00;99.90;;;;;;6211567;23;20013;-75
2023/08/09 09:24:05;;;;;;;7.70;6.80;;;21.00;99.90;;;;;;6210455;23;20077;-75
2023/08/09 09:26:31;;;;;;;7.00;6.13;;;21.10;99.90;;;;;;6184926;23;20000;-74
2023/08/09 09:28:57;;;;;;;6.30;5.57;;;21.20;99.90;;;;;;6185101;23;20032;-76
2023/08/09 09:31:39;;;;;;;5.05;4.60;;;21.10;99.90;;;;;;6210487;23;20005;-74
2023/08/09 09:34:09;;;;;;;4.40;3.90;;;21.10;99.90;;;;;;6211368;23;20098;-75
2023/08/09 09:36:39;;;;;;;6.13;4.75;;;21.10;99.90;;;;;;6210569;23;19997;-75
2023/08/09 09:39:11;;;;;;;4.65;4.15;;;21.20;99.90;;;;;;6210912;23;20184;-74
2023/08/09 09:41:38;;;;;;;10.85;5.45;;;21.30;99.90;;;;;;6184420;23;20009;-74
2023/08/09 09:44:03;;;;;;;7.47;4.43;;;21.40;99.90;;;;;;6184595;23;20028;-74
2023/08/09 09:46:30;;;;;;;7.05;4.93;;;21.40;99.90;;;;;;6211224;23;20012;-74
2023/08/09 09:49:03;;;;;;;5.60;4.85;;;21.40;99.90;;;;;;6209839;23;20367;-75
2023/08/09 09:51:29;;;;;;;5.67;3.40;;;21.40;99.90;;;;;;6183839;23;20012;-75
2023/08/09 09:53:55;;;;;;;4.47;3.92;;;21.50;99.90;;;;;;6211380;23;20009;-75
2023/08/09 09:56:21;;;;;;;5.00;3.75;;;21.50;99.90;;;;;;6210667;23;20059;-75
2023/08/09 09:58:47;;;;;;;6.50;3.45;;;21.50;99.90;;;;;;6211892;23;20234;-75
2023/08/09 10:01:18;;;;;;;6.25;3.28;;;21.50;99.90;;;;;;6211674;23;20427;-76
2023/08/09 10:03:44;;;;;;;3.70;2.88;;;21.60;99.90;;;;;;6186990;23;20088;-75
2023/08/09 10:06:16;;;;;;;4.05;2.85;;;21.60;99.90;;;;;;6212541;23;20411;-76
2023/08/09 10:08:42;;;;;;;3.15;1.85;;;21.70;99.90;;;;;;6185440;23;20007;-76
2023/08/09 10:11:09;;;;;;;3.72;2.97;;;21.80;99.90;;;;;;6212592;23;20000;-74
2023/08/09 10:13:36;;;;;;;3.60;2.15;;;21.80;99.90;;;;;;6186186;23;20008;-75
2023/08/09 10:16:05;;;;;;;2.80;1.83;;;21.80;99.90;;;;;;6186130;23;20004;-75
2023/08/09 10:18:47;;;;;;;3.00;2.28;;;21.90;99.90;;;;;;6185981;23;20015;-75
2023/08/09 10:21:16;;;;;;;6.05;2.45;;;21.90;99.90;;;;;;6212076;23;20326;-75
2023/08/09 10:24:04;;;;;;;2.38;1.83;;;21.70;99.90;;;;;;6212902;23;20001;-74
2023/08/09 10:26:31;;;;;;;3.58;1.70;;;21.70;99.90;;;;;;6185903;23;20071;-75
2023/08/09 10:29:08;;;;;;;2.15;1.67;;;21.60;99.90;;;;;;6212938;23;20307;-74
2023/08/09 10:31:55;;;;;;;2.40;1.58;;;21.60;99.90;;;;;;6186431;23;20529;-74
2023/08/09 10:34:41;;;;;;;3.42;2.40;;;21.70;99.90;;;;;;6212155;23;20004;-74
2023/08/09 10:37:09;;;;;;;5.00;2.03;;;21.70;99.90;;;;;;6185874;23;20087;-75
2023/08/09 10:39:36;;;;;;;3.78;2.80;;;21.80;99.90;;;;;;6213363;23;20007;-74
2023/08/09 10:42:04;;;;;;;4.40;2.42;;;21.90;99.90;;;;;;6212799;23;20008;-74
2023/08/09 10:44:44;;;;;;;3.47;1.98;;;21.90;99.80;;;;;;6212761;23;19996;-74
2023/08/09 10:47:14;;;;;;;4.63;2.10;;;21.90;99.70;;;;;;6212658;23;20067;-74
2023/08/09 10:49:49;;;;;;;4.30;2.42;;;22.00;99.80;;;;;;6185528;23;20035;-74
2023/08/09 10:52:19;;;;;;;4.70;2.35;;;22.00;99.80;;;;;;6212752;23;20055;-74
2023/08/09 10:54:46;;;;;;;3.47;2.60;;;22.10;99.80;;;;;;6206121;23;20012;-75
2023/08/09 10:57:12;;;;;;;5.75;2.85;;;22.10;99.30;;;;;;6236541;23;20008;-74
2023/08/09 10:59:39;;;;;;;2.33;2.13;;;22.20;99.50;;;;;;6211414;23;20001;-74
2023/08/09 11:02:06;;;;;;;3.47;3.08;;;22.20;99.40;;;;;;6212404;23;20079;-75
2023/08/09 11:04:34;;;;;;;4.05;2.80;;;22.40;99.20;;;;;;6210659;23;20051;-74
2023/08/09 11:07:00;;;;;;;4.18;3.22;;;22.50;99.10;;;;;;6211204;23;20032;-74
2023/08/09 11:09:32;;;;;;;4.00;3.60;;;22.50;99.00;;;;;;6212218;23;20001;-74
2023/08/09 11:11:58;;;;;;;5.03;3.95;;;22.50;98.70;;;;;;6212245;23;20422;-74
2023/08/09 11:14:24;;;;;;;6.20;4.72;;;22.40;98.40;;;;;;6212545;23;20005;-74
2023/08/09 11:16:51;;;;;;;4.07;3.67;;;22.30;98.20;;;;;;6213065;23;20000;-75
2023/08/09 11:19:21;;;;;;;6.65;3.92;;;22.10;98.20;;;;;;6211365;23;20007;-74
2023/08/09 11:21:48;;;;;;;6.55;4.95;;;22.00;98.40;;;;;;6210742;23;20350;-74
2023/08/09 11:24:15;;;;;;;3.10;2.80;;;21.80;98.90;;;;;;6212175;23;19997;-74
2023/08/09 11:26:49;;;;;;;4.47;3.33;;;21.90;98.90;;;;;;6212357;23;20001;-75
2023/08/09 11:29:20;;;;;;;5.20;3.55;;;21.90;98.90;;;;;;6212193;23;20005;-74
2023/08/09 11:31:50;;;;;;;4.38;3.28;;;22.00;98.60;;;;;;6211173;23;20008;-75
2023/08/09 11:34:18;;;;;;;4.43;3.78;;;22.10;98.40;;;;;;6209733;23;20084;-74
2023/08/09 11:36:45;;;;;;;5.13;3.22;;;22.10;98.10;;;;;;6212617;23;20004;-74
2023/08/09 11:39:13;;;;;;;4.47;2.58;;;22.20;98.10;;;;;;6212297;23;20001;-74
2023/08/09 11:41:55;;;;;;;4.88;2.60;;;22.20;98.00;;;;;;6212476;23;20128;-74
2023/08/09 11:44:29;;;;;;;4.35;2.92;;;22.30;97.70;;;;;;6211806;23;20004;-74
2023/08/09 11:46:56;;;;;;;3.90;2.78;;;22.40;97.50;;;;;;6212342;23;20001;-74
2023/08/09 11:49:26;;;;;;;4.82;2.90;;;22.50;97.10;;;;;;6211822;23;20031;-74
2023/08/09 11:51:52;;;;;;;4.53;3.00;;;22.60;97.30;;;;;;6210963;23;20005;-74
2023/08/09 11:54:17;;;;;;;3.60;2.85;;;22.70;97.30;;;;;;6211658;23;20020;-76
2023/08/09 11:56:44;;;;;;;3.67;2.72;;;22.70;97.10;;;;;;6212757;23;20008;-77
2023/08/09 11:59:11;;;;;;;4.80;2.85;;;22.70;97.20;;;;;;6211944;23;20054;-75
2023/08/09 12:01:39;;;;;;;3.28;2.35;;;22.70;97.20;;;;;;6211415;23;20434;-74
2023/08/09 12:04:09;;;;;;;3.25;2.20;;;22.70;97.20;;;;;;6211780;23;20005;-74
2023/08/09 12:06:46;;;;;;;4.13;2.25;;;22.80;96.50;;;;;;6212223;23;20008;-74
2023/08/09 12:09:30;;;;;;;4.30;2.90;;;22.80;96.20;;;;;;6185294;23;20071;-74
2023/08/09 12:12:02;;;;;;;2.75;2.05;;;22.80;96.20;;;;;;6185511;23;20030;-74
2023/08/09 12:14:27;;;;;;;5.13;2.53;;;22.70;96.20;;;;;;6212180;23;20001;-74
2023/08/09 12:16:53;;;;;;;2.33;1.73;;;22.60;96.30;;;;;;6211283;23;19996;-74
2023/08/09 12:19:19;;;;;;;3.72;2.10;;;22.60;96.40;;;;;;6211820;23;20000;-74
2023/08/09 12:21:44;;;;;;;3.60;1.90;;;22.60;96.40;;;;;;6211291;23;20442;-74
2023/08/09 12:24:10;;;;;;;4.07;1.67;;;22.60;96.50;;;;;;6211033;23;20004;-74
2023/08/09 12:26:36;;;;;;;3.45;1.60;;;22.60;96.50;;;;;;6211650;23;20001;-74
2023/08/09 12:29:02;;;;;;;3.90;1.73;;;22.70;96.40;;;;;;6185024;23;20011;-74
2023/08/09 12:31:28;;;;;;;2.67;1.77;;;22.70;96.50;;;;;;6211327;23;20013;-73
2023/08/09 12:33:54;;;;;;;4.35;2.13;;;22.80;96.30;;;;;;6212071;23;20444;-74
2023/08/09 12:36:20;;;;;;;2.90;1.75;;;22.90;96.10;;;;;;6210673;23;20012;-74